Time;durP1;ratioP1;P1;durP2;ratioP2;P2;SDS_P1;SDS_P2;PMS_P1;PMS_P2;Temp;Humidity;BMP_temperature;BMP_pressure;BME280_temperature;BME280_humidity;BME280_pressure;Samples;Min_cycle;Max_cycle;Signal;HPM_P1;HPM_P2
2021/10/10 00:00:15;;;;;;;35.60;27.27;;;;;;;7.64;91.28;102830.16;5116313;28;20023;-36
2021/10/10 00:02:40;;;;;;;38.63;27.95;;;;;;;7.52;91.20;102826.09;5116922;28;20024;-36
2021/10/10 00:05:06;;;;;;;37.77;27.33;;;;;;;7.43;90.07;102831.44;5115838;28;20023;-36
2021/10/10 00:07:32;;;;;;;41.03;29.40;;;;;;;7.39;90.89;102835.44;5116352;28;20019;-36
2021/10/10 00:09:57;;;;;;;38.83;28.63;;;;;;;7.40;91.79;102834.44;5115887;28;20459;-36
2021/10/10 00:12:22;;;;;;;38.07;28.00;;;;;;;7.29;90.76;102828.50;5116267;28;20278;-36
2021/10/10 00:14:48;;;;;;;39.43;28.03;;;;;;;7.37;91.88;102834.78;5115895;28;20023;-36
2021/10/10 00:17:13;;;;;;;40.77;28.87;;;;;;;7.41;92.59;102836.09;5116190;28;20092;-36
2021/10/10 00:19:38;;;;;;;39.20;28.67;;;;;;;7.51;93.30;102819.81;5116202;28;20027;-36
2021/10/10 00:22:04;;;;;;;38.10;27.83;;;;;;;7.31;93.15;102799.56;5116398;28;20055;-36
2021/10/10 00:24:29;;;;;;;39.20;28.50;;;;;;;7.49;93.48;102824.53;5115731;28;20534;-36
2021/10/10 00:26:54;;;;;;;36.43;26.50;;;;;;;7.45;93.24;102815.94;5116046;28;20022;-36
2021/10/10 00:29:20;;;;;;;38.10;27.63;;;;;;;7.46;93.06;102819.47;5116135;28;20036;-36
2021/10/10 00:31:45;;;;;;;33.83;25.90;;;;;;;7.43;91.53;102831.44;5115799;28;20019;-36
2021/10/10 00:34:11;;;;;;;34.95;25.40;;;;;;;7.35;91.53;102822.47;5115561;28;20110;-36
2021/10/10 00:36:36;;;;;;;35.60;25.67;;;;;;;7.31;91.37;102819.25;5115461;28;20419;-36
2021/10/10 00:39:02;;;;;;;33.53;25.20;;;;;;;7.17;91.48;102803.69;5115705;28;20062;-36
2021/10/10 00:41:27;;;;;;;33.70;24.50;;;;;;;7.28;91.75;102819.59;5115782;28;20340;-36
2021/10/10 00:43:53;;;;;;;37.70;25.67;;;;;;;7.10;92.01;102799.97;5115413;28;20020;-36
2021/10/10 00:46:18;;;;;;;32.83;25.60;;;;;;;6.86;91.99;102771.94;5115383;28;20412;-36
2021/10/10 00:48:43;;;;;;;34.93;26.00;;;;;;;7.09;92.00;102809.06;5115475;28;20068;-36
2021/10/10 00:51:09;;;;;;;39.53;27.03;;;;;;;6.97;90.98;102793.16;5115938;28;20016;-36
2021/10/10 00:53:36;;;;;;;36.10;25.40;;;;;;;7.07;92.07;102808.34;5115391;28;20078;-36
2021/10/10 00:56:03;;;;;;;36.78;26.45;;;;;;;7.03;92.29;102810.53;5115096;28;20015;-36
2021/10/10 00:58:30;;;;;;;36.55;25.65;;;;;;;6.94;91.77;102785.44;5115097;28;20145;-36
2021/10/10 01:00:56;;;;;;;37.33;25.42;;;;;;;7.00;91.92;102801.94;5115255;28;20084;-36
2021/10/10 01:03:22;;;;;;;31.85;25.05;;;;;;;6.77;90.70;102785.50;5115472;28;20028;-36
2021/10/10 01:05:48;;;;;;;35.53;25.55;;;;;;;7.00;91.59;102807.31;5115092;28;20030;-36
2021/10/10 01:08:15;;;;;;;35.08;25.02;;;;;;;6.97;92.21;102801.25;5115235;28;20023;-36
2021/10/10 01:10:43;;;;;;;35.63;25.60;;;;;;;6.97;92.50;102795.88;5114971;28;20024;-36
2021/10/10 01:13:08;;;;;;;32.50;23.30;;;;;;;7.05;92.37;102797.75;5130961;27;20043;-36
2021/10/10 01:15:34;;;;;;;34.63;24.23;;;;;;;7.08;92.54;102796.63;5115265;28;20017;-35
2021/10/10 01:17:59;;;;;;;34.53;23.77;;;;;;;7.10;92.54;102794.59;5115105;28;20022;-36
2021/10/10 01:20:27;;;;;;;28.60;22.43;;;;;;;7.00;92.20;102799.25;5114641;28;20027;-36
2021/10/10 01:22:52;;;;;;;27.05;21.48;;;;;;;6.94;91.60;102798.88;5115134;28;20023;-36
2021/10/10 01:25:18;;;;;;;33.47;23.42;;;;;;;6.81;92.04;102790.41;5114517;28;20436;-36
2021/10/10 01:27:44;;;;;;;33.53;23.42;;;;;;;6.83;91.24;102792.91;5114583;28;20547;-36
2021/10/10 01:30:09;;;;;;;31.08;23.40;;;;;;;6.75;91.23;102796.41;5114415;28;20047;-36
2021/10/10 01:32:34;;;;;;;34.80;23.13;;;;;;;6.81;91.55;102800.31;5114609;28;20034;-36
2021/10/10 01:35:00;;;;;;;31.70;23.50;;;;;;;6.69;92.70;102787.16;5096525;28;20043;-36
2021/10/10 01:37:25;;;;;;;30.98;23.30;;;;;;;6.74;92.23;102801.97;5114623;28;20024;-36
2021/10/10 01:39:51;;;;;;;30.40;22.47;;;;;;;6.73;92.03;102793.03;5115009;28;20024;-36
2021/10/10 01:42:16;;;;;;;29.03;22.73;;;;;;;6.70;91.58;102788.81;5114474;28;20104;-36
2021/10/10 01:44:42;;;;;;;29.40;22.23;;;;;;;6.58;90.97;102765.88;5113895;28;20277;-36
2021/10/10 01:47:07;;;;;;;27.30;20.83;;;;;;;6.72;92.39;102789.50;5113491;28;20020;-36
2021/10/10 01:49:37;;;;;;;28.80;22.10;;;;;;;6.69;92.59;102794.38;5114421;28;20089;-36
2021/10/10 01:52:03;;;;;;;30.48;22.13;;;;;;;6.76;92.28;102778.44;5113908;28;20068;-36
2021/10/10 01:54:28;;;;;;;27.93;21.63;;;;;;;6.76;91.97;102781.97;5113726;28;20362;-36
2021/10/10 01:56:53;;;;;;;30.40;23.40;;;;;;;6.71;92.15;102779.75;5114024;28;20417;-36
2021/10/10 01:59:19;;;;;;;31.93;21.90;;;;;;;6.68;92.51;102771.16;5114204;28;20051;-36
2021/10/10 02:01:44;;;;;;;30.23;22.10;;;;;;;6.68;91.50;102776.53;5114195;28;20050;-36
2021/10/10 02:04:09;;;;;;;32.20;20.40;;;;;;;6.58;91.08;102781.16;5113659;28;20015;-36
2021/10/10 02:06:35;;;;;;;30.77;20.07;;;;;;;6.58;91.65;102778.47;5113870;28;20352;-36
2021/10/10 02:09:00;;;;;;;26.67;20.30;;;;;;;6.63;91.91;102777.00;5113627;28;20025;-36
2021/10/10 02:11:25;;;;;;;25.97;20.33;;;;;;;6.64;91.81;102777.88;5114386;28;20051;-36
2021/10/10 02:13:51;;;;;;;27.67;21.30;;;;;;;6.57;91.82;102774.94;5113695;28;20030;-36
2021/10/10 02:16:16;;;;;;;30.43;21.53;;;;;;;6.53;91.30;102770.88;5114079;28;20020;-36
2021/10/10 02:18:41;;;;;;;29.87;22.53;;;;;;;6.42;90.71;102777.38;5113908;28;20024;-36
2021/10/10 02:21:07;;;;;;;29.40;21.70;;;;;;;6.44;92.00;102767.31;5113798;28;20490;-36
2021/10/10 02:23:32;;;;;;;30.13;21.63;;;;;;;6.30;91.28;102750.91;5113713;28;20019;-36
2021/10/10 02:25:58;;;;;;;25.23;20.40;;;;;;;6.18;90.55;102759.19;5113933;28;20023;-36
2021/10/10 02:28:23;;;;;;;28.90;21.58;;;;;;;6.33;91.37;102764.03;5114211;28;20429;-36
2021/10/10 02:30:49;;;;;;;30.47;23.13;;;;;;;6.12;92.43;102729.44;5113530;28;20055;-36
2021/10/10 02:33:17;;;;;;;31.70;23.38;;;;;;;6.22;91.82;102746.31;5113537;28;20401;-36
2021/10/10 02:35:42;;;;;;;30.70;21.20;;;;;;;6.31;91.57;102760.66;5113268;28;20019;-36
2021/10/10 02:38:08;;;;;;;27.87;21.57;;;;;;;6.22;90.82;102764.28;5114101;28;20092;-36
2021/10/10 02:40:33;;;;;;;27.57;20.20;;;;;;;6.06;90.85;102738.13;5113536;28;20024;-36
2021/10/10 02:42:58;;;;;;;31.58;21.17;;;;;;;6.02;90.84;102734.06;5113454;28;20789;-36
2021/10/10 02:45:24;;;;;;;28.70;20.83;;;;;;;6.06;91.58;102738.97;5114192;28;20024;-36
2021/10/10 02:47:49;;;;;;;28.47;20.83;;;;;;;6.19;91.70;102754.66;5113463;28;20015;-36
2021/10/10 02:50:15;;;;;;;24.80;20.00;;;;;;;6.17;91.22;102754.00;5113389;28;20019;-36
2021/10/10 02:52:40;;;;;;;28.57;19.47;;;;;;;6.13;91.20;102755.28;5113105;28;20020;-36
2021/10/10 02:55:06;;;;;;;28.23;19.80;;;;;;;6.00;91.05;102734.19;5113642;28;20220;-36
2021/10/10 02:57:31;;;;;;;26.00;18.95;;;;;;;6.06;91.66;102748.88;5113284;28;20035;-36
2021/10/10 02:59:57;;;;;;;25.63;19.13;;;;;;;6.06;92.25;102747.03;5116283;28;20023;-36
2021/10/10 03:02:22;;;;;;;22.33;17.13;;;;;;;6.02;91.31;102745.66;5117423;28;20474;-36
2021/10/10 03:04:47;;;;;;;22.03;16.43;;;;;;;6.05;92.02;102757.91;5117741;28;20019;-36
2021/10/10 03:07:13;;;;;;;21.80;15.90;;;;;;;6.00;91.68;102744.09;5117315;28;20486;-36
2021/10/10 03:09:38;;;;;;;22.40;18.47;;;;;;;6.03;91.01;102741.94;5117251;28;20020;-36
2021/10/10 03:12:03;;;;;;;25.37;18.97;;;;;;;6.04;92.00;102745.47;5117095;28;20059;-36
2021/10/10 03:14:29;;;;;;;35.97;24.87;;;;;;;6.04;93.07;102743.63;5117481;28;20031;-36
2021/10/10 03:16:54;;;;;;;32.20;23.80;;;;;;;6.13;93.57;102739.19;5117361;28;20459;-36
2021/10/10 03:19:19;;;;;;;30.93;24.43;;;;;;;6.06;92.89;102741.66;5117820;28;20086;-36
2021/10/10 03:21:44;;;;;;;28.70;21.37;;;;;;;6.00;91.75;102755.69;5117641;28;20340;-36
2021/10/10 03:24:10;;;;;;;30.87;22.47;;;;;;;6.00;92.02;102746.78;5117017;28;20359;-36
2021/10/10 03:26:35;;;;;;;29.63;21.77;;;;;;;6.01;92.02;102745.81;5117830;28;20356;-36
2021/10/10 03:29:00;;;;;;;30.70;21.00;;;;;;;5.94;91.93;102749.09;5116844;28;20062;-36
2021/10/10 03:31:26;;;;;;;25.80;20.73;;;;;;;5.90;91.81;102746.81;5117051;28;20024;-36
2021/10/10 03:33:51;;;;;;;26.13;20.67;;;;;;;5.86;91.66;102751.69;5116963;28;20020;-36
2021/10/10 03:36:17;;;;;;;29.27;20.63;;;;;;;5.87;92.42;102753.38;5098634;28;20447;-36
2021/10/10 03:38:42;;;;;;;22.47;19.87;;;;;;;5.89;92.94;102759.41;5116665;28;20344;-35
2021/10/10 03:41:07;;;;;;;23.00;19.43;;;;;;;5.86;92.44;102748.16;5117103;28;20094;-36
2021/10/10 03:43:33;;;;;;;22.90;18.50;;;;;;;5.89;92.97;102745.97;5116558;28;20468;-35
2021/10/10 03:45:59;;;;;;;25.65;19.65;;;;;;;5.91;92.70;102748.53;5116311;28;20138;-36
2021/10/10 03:48:24;;;;;;;25.10;18.40;;;;;;;5.90;92.65;102753.06;5116792;28;20102;-36
2021/10/10 03:50:50;;;;;;;20.33;17.98;;;;;;;5.73;92.52;102740.47;5098059;28;20028;-36
2021/10/10 03:53:16;;;;;;;26.35;19.17;;;;;;;5.79;92.93;102755.13;5116141;28;20046;-36
2021/10/10 03:55:42;;;;;;;20.73;18.05;;;;;;;5.77;93.17;102746.38;5116779;28;20015;-35
2021/10/10 03:58:08;;;;;;;24.33;18.87;;;;;;;5.63;93.20;102726.28;5116103;28;20027;-36
2021/10/10 04:00:36;;;;;;;19.88;17.60;;;;;;;5.62;92.31;102732.66;5116640;28;20068;-36
2021/10/10 04:03:04;;;;;;;20.23;16.58;;;;;;;5.65;91.96;102745.75;5116613;28;20035;-35
2021/10/10 04:07:59;;;;;;;20.92;18.20;;;;;;;5.54;92.79;102745.97;5116117;28;20410;-36
2021/10/10 04:10:25;;;;;;;23.35;18.30;;;;;;;5.53;92.52;102749.66;5114645;28;20486;-35
2021/10/10 04:12:51;;;;;;;22.50;18.08;;;;;;;5.55;93.08;102753.88;5116903;28;20044;-36
2021/10/10 04:15:17;;;;;;;20.20;17.27;;;;;;;5.48;93.20;102742.06;5115972;28;20034;-36
2021/10/10 04:17:43;;;;;;;20.38;17.27;;;;;;;5.45;92.46;102736.16;5115840;28;20027;-36
2021/10/10 04:20:10;;;;;;;21.65;18.90;;;;;;;5.48;92.87;102746.59;5115842;28;20024;-36
2021/10/10 04:22:36;;;;;;;20.92;17.55;;;;;;;5.52;92.77;102764.91;5115779;28;20030;-35
2021/10/10 04:25:03;;;;;;;23.23;19.23;;;;;;;5.51;93.35;102755.16;5115972;28;20016;-35
2021/10/10 04:27:29;;;;;;;21.48;18.25;;;;;;;5.49;92.46;102761.69;5115734;28;20083;-36
2021/10/10 04:29:54;;;;;;;21.80;18.57;;;;;;;5.36;92.68;102737.88;5115311;28;20106;-36
2021/10/10 04:32:19;;;;;;;21.00;17.73;;;;;;;5.46;92.74;102748.56;5115724;28;20020;-36
2021/10/10 04:34:45;;;;;;;19.27;16.93;;;;;;;5.37;92.97;102734.22;5115598;28;20026;-35
2021/10/10 04:37:10;;;;;;;25.93;18.57;;;;;;;5.41;93.17;102744.47;5115839;28;20024;-36
2021/10/10 04:39:35;;;;;;;23.93;19.07;;;;;;;5.47;93.08;102752.97;5115376;28;20151;-35
2021/10/10 04:42:01;;;;;;;22.83;18.67;;;;;;;5.47;93.23;102740.38;5115921;28;20115;-36
2021/10/10 04:44:26;;;;;;;28.37;19.33;;;;;;;5.40;93.05;102731.22;5115641;28;20119;-35
2021/10/10 04:46:51;;;;;;;27.47;19.10;;;;;;;5.43;92.73;102739.81;5115904;28;20081;-36
2021/10/10 04:49:17;;;;;;;22.67;18.43;;;;;;;5.47;92.48;102744.91;5115534;28;20363;-35
2021/10/10 04:51:42;;;;;;;22.13;17.90;;;;;;;5.40;92.38;102740.13;5115122;28;20046;-35
2021/10/10 04:54:07;;;;;;;24.73;18.20;;;;;;;5.43;92.45;102747.88;5115418;28;20019;-35
2021/10/10 04:56:33;;;;;;;23.60;17.13;;;;;;;5.36;92.67;102749.47;5115640;28;20026;-36
2021/10/10 04:58:58;;;;;;;21.90;17.77;;;;;;;5.33;92.31;102749.78;5096905;28;20471;-36
2021/10/10 05:01:23;;;;;;;32.93;18.37;;;;;;;5.29;92.65;102747.53;5114737;28;20055;-36
2021/10/10 05:03:49;;;;;;;29.53;18.93;;;;;;;5.29;93.17;102744.84;5114952;28;20023;-36
2021/10/10 05:06:14;;;;;;;30.93;18.63;;;;;;;5.24;92.82;102745.31;5114847;28;20102;-36
2021/10/10 05:08:39;;;;;;;23.40;17.90;;;;;;;5.22;93.07;102743.75;5115028;28;20049;-36
2021/10/10 05:11:05;;;;;;;22.37;18.40;;;;;;;5.25;92.63;102748.84;5115022;28;20044;-36
2021/10/10 05:13:30;;;;;;;27.73;19.37;;;;;;;5.20;93.00;102749.28;5114673;28;20103;-36
2021/10/10 05:15:55;;;;;;;21.70;18.57;;;;;;;5.21;92.34;102750.97;5114609;28;20035;-35
2021/10/10 05:18:21;;;;;;;21.53;18.00;;;;;;;5.10;92.86;102729.72;5114795;28;20030;-36
2021/10/10 05:20:46;;;;;;;22.47;16.67;;;;;;;5.16;92.06;102750.56;5114532;28;20027;-36
2021/10/10 05:23:14;;;;;;;22.87;17.57;;;;;;;5.09;91.46;102742.28;5114412;28;20478;-36
2021/10/10 05:25:40;;;;;;;20.00;16.48;;;;;;;5.10;92.19;102738.59;5114918;28;20107;-36
2021/10/10 05:28:06;;;;;;;19.05;17.05;;;;;;;5.12;92.60;102744.69;5114635;28;20562;-36
2021/10/10 05:30:31;;;;;;;18.67;16.50;;;;;;;5.13;92.96;102748.19;5114528;28;20314;-36
2021/10/10 05:32:57;;;;;;;18.30;15.60;;;;;;;5.02;91.91;102726.91;5114533;28;20026;-35
2021/10/10 05:35:22;;;;;;;19.07;15.13;;;;;;;5.04;91.74;102743.72;5114220;28;20081;-36
2021/10/10 05:37:47;;;;;;;19.60;16.87;;;;;;;5.04;91.79;102744.56;5114188;28;20102;-36
2021/10/10 05:40:13;;;;;;;22.43;16.90;;;;;;;4.97;92.04;102739.94;5113995;28;20023;-36
2021/10/10 05:42:38;;;;;;;20.93;16.37;;;;;;;4.98;92.02;102741.59;5114157;28;20047;-36
2021/10/10 05:45:04;;;;;;;20.30;15.27;;;;;;;4.87;92.29;102738.13;5114354;28;20024;-36
2021/10/10 05:47:30;;;;;;;22.17;16.90;;;;;;;4.93;92.55;102742.06;5095443;28;20099;-36
2021/10/10 05:49:55;;;;;;;17.20;15.17;;;;;;;4.91;91.77;102744.03;5113854;28;20117;-35
2021/10/10 05:52:24;;;;;;;18.90;15.47;;;;;;;4.94;91.89;102749.13;5113794;28;20067;-36
2021/10/10 05:54:49;;;;;;;19.98;15.55;;;;;;;4.86;91.83;102740.97;5113549;28;20455;-36
2021/10/10 05:57:18;;;;;;;20.30;15.15;;;;;;;4.93;91.29;102758.16;5114194;28;20058;-36
2021/10/10 05:59:43;;;;;;;21.42;15.98;;;;;;;4.91;91.41;102762.81;5113745;28;20030;-36
2021/10/10 06:02:09;;;;;;;17.67;15.00;;;;;;;4.94;91.58;102764.38;5113775;28;20028;-36
2021/10/10 06:04:34;;;;;;;19.20;15.45;;;;;;;4.90;92.32;102753.09;5113656;28;20027;-36
2021/10/10 06:06:59;;;;;;;18.43;15.70;;;;;;;4.83;91.63;102760.88;5113702;28;20026;-35
2021/10/10 06:09:25;;;;;;;19.20;16.73;;;;;;;4.85;91.69;102764.25;5095213;28;20035;-36
2021/10/10 06:11:50;;;;;;;20.27;15.30;;;;;;;4.83;91.84;102774.28;5113882;28;20043;-36
2021/10/10 06:14:16;;;;;;;17.58;15.32;;;;;;;4.80;92.16;102768.38;5113595;28;20055;-36
2021/10/10 06:16:42;;;;;;;18.48;15.30;;;;;;;4.82;92.55;102767.22;5113549;28;20031;-36
2021/10/10 06:19:07;;;;;;;18.10;15.15;;;;;;;4.82;92.81;102767.22;5113270;28;20077;-36
2021/10/10 06:21:33;;;;;;;19.00;16.27;;;;;;;4.81;91.88;102768.22;5095501;28;20030;-36
2021/10/10 06:23:58;;;;;;;19.23;15.97;;;;;;;4.75;92.42;102754.56;5113515;28;20069;-36
2021/10/10 06:26:24;;;;;;;22.97;16.87;;;;;;;4.82;92.80;102769.06;5114195;28;20027;-35
2021/10/10 06:28:50;;;;;;;29.02;16.98;;;;;;;4.82;92.58;102777.09;5113464;28;20724;-35
2021/10/10 06:31:15;;;;;;;24.60;18.05;;;;;;;4.82;92.78;102767.22;5113332;28;20026;-35
2021/10/10 06:33:41;;;;;;;27.17;19.17;;;;;;;4.89;93.04;102773.69;5113029;28;20031;-35
2021/10/10 06:36:06;;;;;;;26.53;18.53;;;;;;;4.84;93.07;102770.59;5113481;28;20289;-35
2021/10/10 06:38:32;;;;;;;25.03;19.27;;;;;;;4.98;93.39;102787.19;5113366;28;20031;-35
2021/10/10 06:40:57;;;;;;;22.10;17.92;;;;;;;5.01;93.18;102776.19;5113548;28;20459;-35
2021/10/10 06:43:23;;;;;;;23.30;17.97;;;;;;;4.99;93.59;102757.56;5113245;28;20345;-36
2021/10/10 06:45:48;;;;;;;25.00;17.88;;;;;;;5.14;94.44;102764.13;5113524;28;20344;-35
2021/10/10 06:48:14;;;;;;;27.30;20.60;;;;;;;4.98;94.25;102710.31;5113576;28;20047;-35
2021/10/10 06:50:40;;;;;;;22.00;18.15;;;;;;;5.36;94.74;102743.25;5113161;28;20022;-35
2021/10/10 06:53:05;;;;;;;32.63;18.07;;;;;;;5.33;93.67;102744.41;5113975;28;20024;-36
2021/10/10 06:55:31;;;;;;;37.97;17.57;;;;;;;5.30;93.82;102739.34;5113266;28;20026;-36
2021/10/10 06:57:56;;;;;;;28.93;16.70;;;;;;;5.33;93.90;102755.16;5113475;28;20039;-35
2021/10/10 07:00:21;;;;;;;28.60;15.83;;;;;;;5.40;95.02;102748.16;5113247;28;20366;-35
2021/10/10 07:02:47;;;;;;;23.30;17.73;;;;;;;5.37;94.68;102729.72;5113730;28;20507;-35
2021/10/10 07:05:14;;;;;;;32.23;16.40;;;;;;;5.34;94.32;102729.16;5113385;28;20019;-36
2021/10/10 07:07:40;;;;;;;28.95;14.15;;;;;;;5.39;94.54;102734.91;5113328;28;20023;-35
2021/10/10 07:10:08;;;;;;;25.58;14.93;;;;;;;5.34;94.29;102735.38;5112982;28;20031;-35
2021/10/10 07:12:34;;;;;;;26.17;15.00;;;;;;;5.38;94.54;102749.34;5113799;28;20135;-36
2021/10/10 07:15:01;;;;;;;21.27;15.63;;;;;;;5.40;94.23;102768.78;5112974;28;20051;-36
2021/10/10 07:17:27;;;;;;;26.88;15.48;;;;;;;5.42;93.90;102770.34;5112873;28;20134;-35
2021/10/10 07:20:03;;;;;;;55.08;15.68;;;;;;;5.33;94.23;102754.31;5112923;28;20384;-36
2021/10/10 07:27:26;;;;;;;21.58;15.85;;;;;;;5.69;94.91;102776.66;5113049;28;20043;-36
2021/10/10 07:29:51;;;;;;;19.67;17.00;;;;;;;5.63;95.04;102748.59;5113033;28;20023;-36
2021/10/10 07:32:17;;;;;;;19.57;16.37;;;;;;;5.88;94.19;102770.31;5112837;28;20761;-35
2021/10/10 07:34:42;;;;;;;21.17;17.47;;;;;;;6.04;94.82;102775.03;5113404;28;20015;-36
2021/10/10 07:37:07;;;;;;;19.00;17.00;;;;;;;6.05;93.74;102772.19;5113146;28;20451;-36
2021/10/10 07:39:33;;;;;;;25.13;17.00;;;;;;;6.13;94.49;102776.78;5094546;28;20077;-36
2021/10/10 07:41:58;;;;;;;20.63;17.17;;;;;;;6.20;94.62;102780.56;5113036;28;20069;-36
2021/10/10 07:44:29;;;;;;;19.87;17.60;;;;;;;6.25;94.94;102778.25;5112720;28;20440;-35
2021/10/10 07:47:06;;;;;;;20.33;16.05;;;;;;;6.47;95.54;102776.06;5115748;28;20019;-35
2021/10/10 07:49:32;;;;;;;21.15;17.45;;;;;;;6.37;95.33;102751.97;5116388;28;20034;-36
2021/10/10 07:51:57;;;;;;;23.05;18.02;;;;;;;6.54;94.60;102759.16;5116993;28;20103;-36
2021/10/10 07:54:22;;;;;;;21.83;18.03;;;;;;;6.60;95.10;102738.84;5116404;28;20371;-35
2021/10/10 07:56:48;;;;;;;24.27;19.60;;;;;;;6.76;94.94;102755.06;5116103;28;20434;-36
2021/10/10 07:59:13;;;;;;;22.43;19.00;;;;;;;6.82;94.31;102758.97;5116001;28;20033;-36
2021/10/10 08:01:38;;;;;;;23.03;20.10;;;;;;;6.87;94.24;102754.78;5116427;28;20019;-36
2021/10/10 08:04:04;;;;;;;25.97;20.57;;;;;;;6.98;94.25;102759.06;5116852;28;20027;-36
2021/10/10 08:06:29;;;;;;;24.90;20.02;;;;;;;7.06;93.32;102759.09;5116444;28;20027;-36
2021/10/10 08:08:54;;;;;;;23.40;19.87;;;;;;;7.19;93.68;102766.72;5116624;28;20023;-36
2021/10/10 08:11:20;;;;;;;20.13;17.97;;;;;;;7.23;94.02;102766.25;5115952;28;20050;-36
2021/10/10 08:13:45;;;;;;;21.73;19.43;;;;;;;7.36;94.10;102773.84;5116315;28;20031;-36
2021/10/10 08:16:10;;;;;;;22.70;19.23;;;;;;;7.35;93.53;102761.41;5116023;28;20022;-36
2021/10/10 08:18:35;;;;;;;16.93;15.23;;;;;;;7.48;94.08;102769.88;5115696;28;20050;-36
2021/10/10 08:21:01;;;;;;;22.43;19.17;;;;;;;7.56;93.55;102773.56;5116018;28;20370;-36
2021/10/10 08:23:26;;;;;;;20.50;18.33;;;;;;;7.59;94.45;102778.63;5116389;28;20023;-36
2021/10/10 08:25:52;;;;;;;24.20;18.07;;;;;;;7.57;93.68;102778.81;5115552;28;20019;-36
2021/10/10 08:28:17;;;;;;;21.50;19.30;;;;;;;7.67;93.96;102784.06;5116222;28;20027;-36
2021/10/10 08:30:42;;;;;;;21.23;18.90;;;;;;;7.71;93.88;102788.09;5116039;28;20058;-36
2021/10/10 08:33:08;;;;;;;23.30;20.80;;;;;;;7.65;93.66;102784.19;5115664;28;20019;-36
2021/10/10 08:35:33;;;;;;;23.97;21.10;;;;;;;7.63;94.25;102775.47;5115590;28;20103;-36
2021/10/10 08:37:58;;;;;;;22.70;20.30;;;;;;;7.84;94.04;102787.63;5115773;28;20100;-36
2021/10/10 08:40:24;;;;;;;21.83;19.00;;;;;;;7.94;94.66;102794.53;5115555;28;20507;-36
2021/10/10 08:42:53;;;;;;;23.07;20.40;;;;;;;7.96;94.25;102805.16;5115906;28;20503;-36
2021/10/10 08:45:25;;;;;;;21.98;19.67;;;;;;;8.09;94.31;102801.97;5115636;28;20371;-36
2021/10/10 08:47:52;;;;;;;24.60;20.33;;;;;;;8.18;93.32;102807.19;5115459;28;20066;-36
2021/10/10 08:50:19;;;;;;;23.45;21.02;;;;;;;8.27;94.07;102810.75;5115486;28;20031;-36
2021/10/10 08:52:46;;;;;;;23.27;20.88;;;;;;;8.43;93.54;102809.94;5115101;28;20084;-36
2021/10/10 08:55:13;;;;;;;23.60;20.63;;;;;;;8.65;93.76;102805.72;5115269;28;20034;-36
2021/10/10 08:57:39;;;;;;;;;;;;;;;8.81;93.62;102805.69;5115303;28;20027;-36
2021/10/10 09:00:08;;;;;;;25.98;22.58;;;;;;;8.89;93.64;102808.38;5115923;28;19928;-36
2021/10/10 09:02:35;;;;;;;31.38;27.15;;;;;;;8.99;93.14;102802.78;5115709;28;20015;-35
2021/10/10 09:05:08;;;;;;;30.52;27.05;;;;;;;9.13;93.44;102788.56;5116077;28;20025;-36
2021/10/10 09:07:35;;;;;;;29.88;26.60;;;;;;;9.41;92.88;102815.09;5115748;28;20027;-36
2021/10/10 09:10:31;;;;;;;32.55;26.15;;;;;;;9.57;92.80;102808.81;5115966;28;20057;-36
2021/10/10 09:13:30;;;;;;;34.15;29.98;;;;;;;9.72;92.44;102812.44;5115305;28;20375;-36
2021/10/10 09:15:56;;;;;;;33.53;29.10;;;;;;;9.80;91.91;102804.28;5114673;28;20185;-36
2021/10/10 09:18:30;;;;;;;33.13;29.17;;;;;;;9.90;91.84;102798.63;5115547;28;20027;-36
2021/10/10 09:20:56;;;;;;;37.10;29.90;;;;;;;9.96;90.92;102806.06;5114890;28;20470;-36
2021/10/10 09:23:21;;;;;;;37.77;32.30;;;;;;;10.01;90.74;102804.50;5115234;28;20030;-36
2021/10/10 09:25:56;;;;;;;36.50;29.43;;;;;;;10.04;90.60;102796.00;5114891;28;20080;-36
2021/10/10 09:28:24;;;;;;;33.38;29.70;;;;;;;9.97;90.78;102776.13;5114405;28;20023;-36
2021/10/10 09:30:54;;;;;;;34.03;29.35;;;;;;;10.11;90.25;102801.53;5115260;28;20031;-36
2021/10/10 09:33:47;;;;;;;30.58;27.00;;;;;;;10.20;90.75;102802.31;5115140;28;20059;-36
2021/10/10 09:36:22;;;;;;;32.30;28.17;;;;;;;10.22;90.87;102808.38;5106588;28;20023;-36
2021/10/10 09:38:57;;;;;;;33.22;29.23;;;;;;;10.34;91.54;102812.38;5114218;28;20048;-36
2021/10/10 09:41:32;;;;;;;37.25;30.88;;;;;;;10.42;91.15;102808.75;5114731;28;20398;-36
2021/10/10 09:44:23;;;;;;;36.45;29.70;;;;;;;10.54;91.01;102783.81;5114000;28;20019;-36
2021/10/10 09:46:50;;;;;;;38.25;31.85;;;;;;;10.83;90.85;102801.09;5114475;28;20023;-36
2021/10/10 09:49:26;;;;;;;38.10;31.73;;;;;;;10.94;90.52;102797.94;5114677;28;20023;-36
2021/10/10 09:51:56;;;;;;;35.78;31.13;;;;;;;11.05;89.21;102788.50;5114638;28;20023;-36
2021/10/10 09:54:23;;;;;;;38.03;31.20;;;;;;;11.16;89.22;102790.75;5113853;28;20019;-36
2021/10/10 09:57:08;;;;;;;37.53;31.25;;;;;;;11.15;89.06;102772.00;5114346;28;20371;-36
2021/10/10 09:59:34;;;;;;;39.95;31.73;;;;;;;11.16;88.00;102790.75;5114359;28;20015;-36
2021/10/10 10:01:59;;;;;;;33.92;29.45;;;;;;;11.10;88.57;102775.25;5114492;28;20024;-36
2021/10/10 10:04:26;;;;;;;34.23;30.50;;;;;;;11.12;88.61;102769.66;5113939;28;20031;-36
2021/10/10 10:06:52;;;;;;;33.60;29.45;;;;;;;10.97;88.50;102766.94;5113976;28;20327;-36
2021/10/10 10:09:18;;;;;;;;;;;;;;;11.17;89.48;102775.34;5113559;28;20019;-36
2021/10/10 10:11:46;;;;;;;41.33;30.67;;;;;;;11.05;88.53;102770.41;5114191;28;19980;-36
2021/10/10 10:14:14;;;;;;;34.78;30.98;;;;;;;11.23;90.07;102772.72;5113705;28;20482;-36
2021/10/10 10:16:45;;;;;;;37.45;32.75;;;;;;;11.35;90.14;102767.66;5114490;28;20051;-36
2021/10/10 10:19:17;;;;;;;37.03;31.02;;;;;;;11.51;89.35;102758.47;5113730;28;20336;-36
2021/10/10 10:21:53;;;;;;;34.92;30.48;;;;;;;11.66;88.35;102763.84;5113721;28;20032;-36
2021/10/10 10:24:20;;;;;;;38.53;31.13;;;;;;;11.83;87.74;102754.50;5114535;28;20353;-36
2021/10/10 10:26:46;;;;;;;41.20;31.35;;;;;;;11.94;86.78;102766.69;5113891;28;20043;-36
2021/10/10 10:29:25;;;;;;;39.83;32.17;;;;;;;12.06;86.80;102763.28;5113735;28;20463;-36
2021/10/10 10:31:53;;;;;;;37.80;28.80;;;;;;;12.16;85.57;102776.50;5114082;28;20406;-36
2021/10/10 10:34:29;;;;;;;34.58;29.63;;;;;;;12.33;86.22;102782.50;5113952;28;20448;-36
2021/10/10 10:37:02;;;;;;;34.75;28.85;;;;;;;12.41;84.98;102792.38;5113958;28;20024;-36
2021/10/10 10:39:40;;;;;;;37.72;30.30;;;;;;;12.55;85.73;102805.84;5114179;28;20019;-36
2021/10/10 10:42:10;;;;;;;33.70;29.08;;;;;;;12.59;85.20;102787.28;5114390;28;20046;-36
2021/10/10 10:44:48;;;;;;;37.88;30.33;;;;;;;12.77;84.55;102770.50;5113434;28;20059;-36
2021/10/10 10:47:32;;;;;;;40.40;30.50;;;;;;;12.73;83.86;102766.50;5113984;28;20039;-36
2021/10/10 10:49:59;;;;;;;37.97;31.17;;;;;;;12.90;83.03;102767.88;5113684;28;20032;-36
2021/10/10 10:52:37;;;;;;;37.67;30.40;;;;;;;13.00;82.22;102772.97;5114171;28;20105;-36
2021/10/10 10:55:18;;;;;;;39.50;28.50;;;;;;;13.08;81.73;102779.06;5114240;28;20347;-36
2021/10/10 10:57:52;;;;;;;38.40;29.95;;;;;;;13.14;80.63;102769.28;5113811;28;20129;-36
2021/10/10 11:00:30;;;;;;;38.20;28.80;;;;;;;13.29;81.97;102782.75;5113660;28;20479;-36
2021/10/10 11:02:58;;;;;;;34.42;29.35;;;;;;;13.32;81.47;102785.06;5114198;28;20023;-36
2021/10/10 11:05:32;;;;;;;36.50;29.48;;;;;;;13.49;81.06;102788.28;5113702;28;20345;-36
2021/10/10 11:08:04;;;;;;;38.08;30.15;;;;;;;13.56;80.26;102783.69;5113707;28;20047;-36
2021/10/10 11:10:31;;;;;;;38.92;29.15;;;;;;;13.60;79.10;102783.06;5113957;28;20356;-36
2021/10/10 11:13:20;;;;;;;36.70;28.45;;;;;;;13.73;81.10;102778.75;5114168;28;20355;-36
2021/10/10 11:15:49;;;;;;;48.35;31.40;;;;;;;13.80;80.37;102785.84;5113839;28;20035;-37
2021/10/10 11:18:17;;;;;;;39.38;29.00;;;;;;;13.83;80.11;102773.75;5113577;28;20040;-36
2021/10/10 11:20:53;;;;;;;35.10;28.77;;;;;;;13.85;79.38;102772.47;5115530;28;20028;-37
2021/10/10 11:23:19;;;;;;;40.22;29.77;;;;;;;14.00;78.64;102776.91;5117203;28;20110;-36